Time;durP1;ratioP1;P1;durP2;ratioP2;P2;SDS_P1;SDS_P2;PMS_P1;PMS_P2;Temp;Humidity;BMP_temperature;BMP_pressure;BME280_temperature;BME280_humidity;BME280_pressure;Samples;Min_cycle;Max_cycle;Signal;HPM_P1;HPM_P2
2021/12/29 00:02:24;;;;;;;19.10;12.80;;;12.60;99.90;;;;;;5092439;28;20409;-65
2021/12/29 00:04:52;;;;;;;18.35;13.02;;;12.60;99.90;;;;;;5075788;28;20139;-65
2021/12/29 00:07:21;;;;;;;17.70;12.57;;;12.50;99.90;;;;;;5100413;28;20134;-65
2021/12/29 00:09:50;;;;;;;20.63;12.43;;;12.50;99.90;;;;;;5105836;28;20097;-65
2021/12/29 00:12:24;;;;;;;14.38;9.77;;;12.30;99.90;;;;;;5075541;28;20102;-66
2021/12/29 00:14:56;;;;;;;12.73;9.95;;;12.20;99.90;;;;;;5106687;28;20127;-65
2021/12/29 00:17:24;;;;;;;11.43;8.55;;;12.10;99.90;;;;;;5110366;28;20135;-65
2021/12/29 00:19:51;;;;;;;12.70;8.50;;;12.00;99.90;;;;;;5078068;28;20047;-66
2021/12/29 00:22:19;;;;;;;12.13;8.20;;;11.90;99.90;;;;;;5099957;28;20040;-68
2021/12/29 00:24:46;;;;;;;12.30;8.23;;;11.80;99.90;;;;;;5102390;28;20039;-64
2021/12/29 00:27:14;;;;;;;10.00;7.57;;;11.70;99.90;;;;;;5057303;28;20054;-67
2021/12/29 00:29:42;;;;;;;11.65;9.20;;;11.70;99.90;;;;;;5055590;28;20067;-65
2021/12/29 00:32:28;;;;;;;14.47;8.40;;;11.60;99.90;;;;;;5078940;28;20048;-66
2021/12/29 00:35:35;;;;;;;14.85;9.43;;;11.50;99.90;;;;;;5009751;28;20377;-64
2021/12/29 00:38:20;;;;;;;;;;;11.40;99.90;;;;;;5010020;28;20050;-65
2021/12/29 00:41:07;;;;;;;11.68;9.02;;;11.40;99.90;;;;;;5065570;28;19965;-66
2021/12/29 00:43:52;;;;;;;12.27;8.80;;;11.30;99.90;;;;;;5092276;28;20055;-63
2021/12/29 00:46:19;;;;;;;15.50;9.10;;;11.20;99.90;;;;;;5083000;28;20425;-63
2021/12/29 00:48:48;;;;;;;14.07;9.35;;;11.10;99.90;;;;;;5081797;28;20051;-65
2021/12/29 00:51:16;;;;;;;12.60;9.98;;;11.10;99.90;;;;;;5084775;28;20039;-64
2021/12/29 00:53:44;;;;;;;15.55;10.27;;;11.00;99.90;;;;;;5080450;28;20448;-63
2021/12/29 00:56:12;;;;;;;8.45;7.45;;;11.00;99.90;;;;;;5043496;28;20123;-68
2021/12/29 00:58:39;;;;;;;12.25;8.38;;;10.90;99.90;;;;;;5065465;28;20135;-63
2021/12/29 01:01:07;;;;;;;12.18;9.40;;;10.90;99.90;;;;;;5104636;27;20043;-63
2021/12/29 01:03:36;;;;;;;11.75;9.50;;;10.90;99.90;;;;;;5069923;28;20123;-64
2021/12/29 01:06:04;;;;;;;11.55;9.73;;;10.80;99.90;;;;;;5074732;28;20490;-65
2021/12/29 01:08:32;;;;;;;11.95;7.78;;;10.90;99.90;;;;;;5096825;28;20043;-64
2021/12/29 01:11:00;;;;;;;10.40;7.45;;;10.90;99.90;;;;;;5093026;28;20676;-65
2021/12/29 01:13:33;;;;;;;12.95;8.02;;;10.90;99.90;;;;;;5066963;28;20032;-64
2021/12/29 01:18:36;;;;;;;12.60;9.23;;;10.90;99.90;;;;;;5113503;28;20156;-64
2021/12/29 01:21:05;;;;;;;10.80;9.35;;;11.00;99.90;;;;;;5093157;28;20170;-64
2021/12/29 01:23:32;;;;;;;13.77;9.25;;;11.00;99.90;;;;;;5072043;28;20367;-64
2021/12/29 01:26:00;;;;;;;10.02;8.55;;;11.00;99.90;;;;;;5102528;28;20086;-65
2021/12/29 01:28:28;;;;;;;12.38;9.40;;;11.10;99.90;;;;;;5061922;28;20139;-64
2021/12/29 01:30:56;;;;;;;12.02;9.18;;;11.10;99.90;;;;;;5082505;28;20128;-64
2021/12/29 01:33:24;;;;;;;13.68;9.57;;;11.10;99.90;;;;;;5031965;28;20101;-66
2021/12/29 01:35:51;;;;;;;15.65;10.63;;;11.10;99.90;;;;;;5103820;28;20044;-65
2021/12/29 01:38:19;;;;;;;14.00;11.13;;;11.10;99.90;;;;;;5059164;28;20044;-64
2021/12/29 01:40:49;;;;;;;15.90;11.52;;;11.00;99.90;;;;;;5051620;28;20056;-64
2021/12/29 01:43:18;;;;;;;13.20;9.93;;;11.00;99.90;;;;;;5104437;28;20490;-64
2021/12/29 01:45:46;;;;;;;13.25;9.48;;;11.00;99.90;;;;;;5078910;28;20036;-64
2021/12/29 01:48:16;;;;;;;13.45;10.68;;;11.00;99.90;;;;;;5076174;28;20044;-64
2021/12/29 01:50:51;;;;;;;15.45;10.95;;;11.00;99.90;;;;;;5086214;28;20076;-69
2021/12/29 01:53:26;;;;;;;14.63;11.23;;;11.00;99.90;;;;;;5070102;28;20054;-65
2021/12/29 01:55:54;;;;;;;18.25;9.73;;;11.00;99.90;;;;;;5058115;28;20051;-65
2021/12/29 01:58:23;;;;;;;15.52;10.32;;;10.90;99.90;;;;;;5091740;28;20052;-65
2021/12/29 02:00:53;;;;;;;14.63;10.15;;;10.90;99.90;;;;;;5092585;28;20051;-65
2021/12/29 02:03:21;;;;;;;15.18;10.35;;;10.80;99.90;;;;;;5092907;28;20036;-66
2021/12/29 02:05:48;;;;;;;15.65;11.02;;;10.70;99.90;;;;;;5074707;28;20064;-65
2021/12/29 02:08:22;;;;;;;16.35;11.13;;;10.60;99.90;;;;;;5075859;28;20044;-64
2021/12/29 02:10:52;;;;;;;16.92;11.35;;;10.60;99.90;;;;;;4891377;28;20910;-65
2021/12/29 02:13:20;;;;;;;14.45;10.93;;;10.60;99.90;;;;;;4641651;28;21182;-69
2021/12/29 02:15:47;;;;;;;15.65;9.75;;;10.60;99.90;;;;;;5097405;28;20108;-64
2021/12/29 02:18:19;;;;;;;12.70;11.02;;;10.60;99.90;;;;;;5097439;28;20069;-64
2021/12/29 02:20:50;;;;;;;14.38;9.23;;;10.50;99.90;;;;;;5080957;28;20058;-64
2021/12/29 02:23:25;;;;;;;15.02;9.77;;;10.50;99.90;;;;;;5097679;28;20176;-64
2021/12/29 02:25:55;;;;;;;12.90;9.27;;;10.60;99.90;;;;;;5097394;28;20039;-64
2021/12/29 02:28:35;;;;;;;16.35;9.35;;;10.70;99.90;;;;;;5115110;28;20552;-64
2021/12/29 02:31:04;;;;;;;15.13;10.68;;;10.70;99.90;;;;;;5115242;28;20138;-64
2021/12/29 02:33:31;;;;;;;11.05;8.35;;;10.60;99.90;;;;;;5097261;28;20063;-64
2021/12/29 02:36:00;;;;;;;11.43;8.07;;;10.60;99.90;;;;;;5115299;28;20039;-64
2021/12/29 02:38:32;;;;;;;12.82;8.20;;;10.50;99.90;;;;;;5097118;28;20074;-64
2021/12/29 02:41:05;;;;;;;14.73;9.32;;;10.50;99.90;;;;;;5080312;28;20054;-64
2021/12/29 02:43:37;;;;;;;14.32;9.90;;;10.50;99.90;;;;;;5096767;28;20054;-64
2021/12/29 02:46:13;;;;;;;14.15;8.48;;;10.50;99.90;;;;;;5115153;28;20068;-68
2021/12/29 02:48:51;;;;;;;;;;;10.40;99.90;;;;;;5115529;28;20417;-64
2021/12/29 02:51:19;;;;;;;13.30;9.10;;;10.40;99.90;;;;;;5096598;28;19962;-64
2021/12/29 02:53:47;;;;;;;15.40;10.65;;;10.30;99.90;;;;;;5114719;28;20065;-64
2021/12/29 02:56:15;;;;;;;13.15;8.45;;;10.30;99.90;;;;;;5096458;28;20036;-64
2021/12/29 02:58:42;;;;;;;13.60;8.63;;;10.30;99.90;;;;;;5096678;28;20043;-64
2021/12/29 03:01:13;;;;;;;17.52;9.65;;;10.40;99.90;;;;;;5096489;28;20122;-64
2021/12/29 03:03:41;;;;;;;16.38;9.65;;;10.30;99.90;;;;;;5096725;28;20460;-64
2021/12/29 03:06:10;;;;;;;15.05;8.50;;;10.40;99.90;;;;;;5079823;28;20363;-65
2021/12/29 03:08:39;;;;;;;12.52;9.07;;;10.40;99.90;;;;;;5114591;28;20067;-64
2021/12/29 03:11:08;;;;;;;11.40;7.47;;;10.50;99.90;;;;;;5114548;28;20089;-64
2021/12/29 03:13:38;;;;;;;13.10;8.15;;;10.50;99.90;;;;;;5079674;28;20401;-64
2021/12/29 03:16:07;;;;;;;11.80;7.60;;;10.60;99.90;;;;;;5114325;28;20070;-65
2021/12/29 03:18:35;;;;;;;12.40;8.25;;;10.70;99.90;;;;;;5096196;28;20088;-64
2021/12/29 03:21:03;;;;;;;11.80;7.57;;;10.80;99.90;;;;;;5076120;28;20048;-64
2021/12/29 03:23:31;;;;;;;8.50;5.78;;;10.80;99.90;;;;;;5043064;28;20449;-64
2021/12/29 03:25:59;;;;;;;11.18;6.25;;;10.90;99.90;;;;;;5079519;28;20042;-64
2021/12/29 03:28:26;;;;;;;7.70;5.53;;;10.90;99.90;;;;;;5114223;28;20067;-64
2021/12/29 03:30:55;;;;;;;8.27;5.50;;;10.90;99.90;;;;;;5096381;28;20122;-64
2021/12/29 03:33:28;;;;;;;10.25;6.03;;;10.90;99.90;;;;;;5096258;28;20386;-64
2021/12/29 03:36:03;;;;;;;8.77;5.43;;;10.90;99.90;;;;;;5096031;28;20035;-64
2021/12/29 03:38:33;;;;;;;7.35;4.65;;;10.90;99.90;;;;;;5114202;28;20067;-64
2021/12/29 03:41:02;;;;;;;6.28;4.28;;;11.00;99.90;;;;;;5079519;28;20050;-64
2021/12/29 03:43:32;;;;;;;9.05;5.30;;;11.00;99.90;;;;;;5095929;28;20051;-64
2021/12/29 03:46:01;;;;;;;7.70;5.93;;;11.10;99.90;;;;;;5095828;28;20135;-64
2021/12/29 03:48:30;;;;;;;6.72;4.97;;;11.10;99.90;;;;;;5062146;28;20054;-64
2021/12/29 03:50:58;;;;;;;7.18;5.03;;;11.20;99.90;;;;;;5095959;28;20052;-64
2021/12/29 03:53:26;;;;;;;5.70;4.22;;;11.20;99.90;;;;;;5095703;28;20048;-64
2021/12/29 03:55:54;;;;;;;8.05;3.92;;;11.20;99.90;;;;;;5095853;28;20043;-64
2021/12/29 03:58:24;;;;;;;7.60;4.63;;;11.30;99.90;;;;;;5095664;28;20134;-64
2021/12/29 04:00:55;;;;;;;5.05;3.85;;;11.40;99.90;;;;;;5113693;28;20078;-64
2021/12/29 04:03:22;;;;;;;6.57;3.78;;;11.50;99.90;;;;;;5095920;28;20048;-64
2021/12/29 04:05:50;;;;;;;6.25;4.05;;;11.50;99.90;;;;;;5113805;28;20397;-64
2021/12/29 04:08:18;;;;;;;6.88;4.93;;;11.50;99.90;;;;;;5095419;28;20048;-64
2021/12/29 04:10:45;;;;;;;6.07;4.32;;;11.60;99.90;;;;;;5078855;28;20047;-64
2021/12/29 04:13:13;;;;;;;5.60;4.07;;;11.60;99.90;;;;;;5113432;28;20036;-65
2021/12/29 04:15:41;;;;;;;5.45;3.67;;;11.50;99.90;;;;;;5078897;28;20069;-65
2021/12/29 04:18:15;;;;;;;5.28;3.78;;;11.60;99.90;;;;;;5113276;28;20085;-65
2021/12/29 04:21:02;;;;;;;6.85;4.63;;;11.50;99.90;;;;;;5078898;28;20047;-64
2021/12/29 04:23:33;;;;;;;7.53;4.20;;;11.50;99.90;;;;;;5095574;28;20044;-64
2021/12/29 04:26:04;;;;;;;8.27;5.70;;;11.50;99.90;;;;;;5078944;28;20056;-64
2021/12/29 04:28:32;;;;;;;6.40;4.20;;;11.50;99.90;;;;;;5113459;28;20085;-64
2021/12/29 04:31:07;;;;;;;6.15;4.53;;;11.60;99.90;;;;;;5095620;28;20547;-64
2021/12/29 04:33:36;;;;;;;7.85;5.20;;;11.60;99.90;;;;;;5095116;28;20428;-65
2021/12/29 04:36:06;;;;;;;9.80;5.30;;;11.60;99.90;;;;;;5114349;28;20456;-64
2021/12/29 04:38:35;;;;;;;6.80;4.95;;;11.60;99.90;;;;;;5117618;28;20054;-64
2021/12/29 04:41:04;;;;;;;7.05;4.65;;;11.50;99.90;;;;;;5099373;28;20047;-64
2021/12/29 04:43:31;;;;;;;7.00;5.03;;;11.50;99.90;;;;;;5099135;28;20039;-64
2021/12/29 04:45:59;;;;;;;8.75;5.47;;;11.50;99.90;;;;;;5082255;28;20070;-64
2021/12/29 04:48:28;;;;;;;7.65;5.13;;;11.50;99.90;;;;;;5082084;28;20067;-64
2021/12/29 04:51:12;;;;;;;6.95;4.95;;;11.50;99.90;;;;;;5099003;28;20085;-64
2021/12/29 04:53:39;;;;;;;8.60;5.60;;;11.60;99.90;;;;;;5098956;28;20448;-64
2021/12/29 04:56:07;;;;;;;11.70;6.55;;;11.60;99.90;;;;;;5098778;28;20047;-65
2021/12/29 04:58:34;;;;;;;8.63;6.28;;;11.70;99.90;;;;;;5099158;28;20052;-64
2021/12/29 05:01:02;;;;;;;7.75;5.72;;;11.70;99.90;;;;;;5116881;28;20035;-64
2021/12/29 05:03:30;;;;;;;8.32;5.43;;;11.80;99.90;;;;;;5099008;28;20043;-64
2021/12/29 05:08:34;;;;;;;8.43;6.15;;;11.80;99.90;;;;;;5099093;28;20388;-64
2021/12/29 05:11:07;;;;;;;9.30;6.80;;;11.80;99.90;;;;;;5116789;28;20043;-64
2021/12/29 05:13:38;;;;;;;9.60;6.32;;;11.70;99.90;;;;;;5081788;28;20043;-64
2021/12/29 05:16:07;;;;;;;14.73;6.50;;;11.70;99.90;;;;;;5116643;28;20130;-65
2021/12/29 05:18:37;;;;;;;9.38;7.03;;;11.70;99.90;;;;;;5081771;28;20039;-64
2021/12/29 05:21:07;;;;;;;10.15;6.80;;;11.70;99.90;;;;;;5082092;28;20048;-64
2021/12/29 05:23:35;;;;;;;9.45;6.38;;;11.80;99.90;;;;;;5098725;28;20050;-64
2021/12/29 05:26:04;;;;;;;9.07;6.95;;;11.80;99.90;;;;;;5098219;28;20413;-64
2021/12/29 05:28:31;;;;;;;11.65;6.40;;;11.80;99.90;;;;;;5081660;28;20048;-64
2021/12/29 05:30:59;;;;;;;10.85;6.30;;;11.80;99.90;;;;;;5081756;28;20048;-64
2021/12/29 05:33:27;;;;;;;13.23;8.40;;;11.80;99.90;;;;;;5098413;28;20051;-64
2021/12/29 05:35:54;;;;;;;9.82;6.88;;;11.90;99.90;;;;;;5098687;28;20074;-64
2021/12/29 05:38:22;;;;;;;13.50;8.07;;;11.90;99.90;;;;;;5116255;28;20036;-64
2021/12/29 05:40:52;;;;;;;12.32;6.95;;;11.80;99.90;;;;;;5098131;28;20044;-64
2021/12/29 05:43:20;;;;;;;14.65;9.38;;;11.90;99.90;;;;;;5097807;28;20132;-66
2021/12/29 05:45:49;;;;;;;14.00;8.98;;;11.90;99.90;;;;;;5097884;28;20093;-65
2021/12/29 05:48:17;;;;;;;12.18;9.45;;;11.90;99.90;;;;;;5096703;28;20130;-64
2021/12/29 05:50:45;;;;;;;14.45;11.25;;;12.00;99.90;;;;;;5098344;28;20131;-64
2021/12/29 05:53:12;;;;;;;12.18;10.35;;;11.90;99.90;;;;;;5097810;28;20121;-65
2021/12/29 05:55:41;;;;;;;14.70;11.60;;;12.00;99.90;;;;;;5116120;28;20054;-64
2021/12/29 05:58:10;;;;;;;11.70;10.52;;;12.00;99.90;;;;;;5115776;28;20040;-64
2021/12/29 06:00:39;;;;;;;11.32;9.98;;;12.00;99.90;;;;;;5097752;28;20460;-64
2021/12/29 06:03:07;;;;;;;11.68;9.20;;;12.00;99.90;;;;;;5115895;28;20397;-64
2021/12/29 06:05:36;;;;;;;12.15;10.18;;;11.90;99.90;;;;;;5097860;28;20043;-64
2021/12/29 06:08:05;;;;;;;10.70;9.65;;;12.00;99.90;;;;;;5115794;28;20044;-64
2021/12/29 06:10:33;;;;;;;11.27;9.50;;;12.00;99.90;;;;;;5074783;28;20510;-64
2021/12/29 06:13:01;;;;;;;16.85;11.75;;;12.00;99.90;;;;;;5097546;28;20080;-64
2021/12/29 06:15:29;;;;;;;23.95;17.48;;;12.10;99.90;;;;;;5097519;28;20082;-64
2021/12/29 06:17:57;;;;;;;22.40;14.75;;;12.10;99.90;;;;;;5097827;28;20036;-63
2021/12/29 06:20:25;;;;;;;19.38;13.43;;;12.10;99.90;;;;;;5097212;28;20122;-64
2021/12/29 06:22:53;;;;;;;15.93;10.73;;;12.10;99.90;;;;;;5097251;28;20052;-64
2021/12/29 06:25:21;;;;;;;17.45;10.52;;;12.20;99.90;;;;;;5097234;28;20128;-64
2021/12/29 06:27:49;;;;;;;15.70;9.93;;;12.20;99.90;;;;;;5097401;28;20080;-64
2021/12/29 06:30:17;;;;;;;12.50;8.73;;;12.10;99.90;;;;;;4677416;28;20592;-65
2021/12/29 06:32:45;;;;;;;11.55;8.82;;;12.10;99.90;;;;;;4802096;28;20040;-64
2021/12/29 06:35:15;;;;;;;13.50;10.15;;;12.20;99.90;;;;;;5109470;28;20046;-67
2021/12/29 06:37:44;;;;;;;11.98;8.82;;;12.10;99.90;;;;;;5089533;28;20472;-64
2021/12/29 06:40:13;;;;;;;11.43;8.25;;;12.20;99.90;;;;;;5089411;28;20533;-64
2021/12/29 06:42:41;;;;;;;10.73;8.32;;;12.30;99.90;;;;;;5062712;28;20388;-64
2021/12/29 06:45:12;;;;;;;12.65;8.27;;;12.30;99.90;;;;;;5085154;28;20505;-64
2021/12/29 06:47:40;;;;;;;12.43;8.35;;;12.30;99.90;;;;;;5109651;28;20358;-64
2021/12/29 06:50:08;;;;;;;14.55;8.25;;;12.30;99.90;;;;;;5070429;28;20055;-64
2021/12/29 06:52:36;;;;;;;12.57;7.38;;;12.40;99.90;;;;;;5091335;28;20537;-64
2021/12/29 06:55:07;;;;;;;18.77;7.90;;;12.40;99.90;;;;;;5088024;28;20483;-67
2021/12/29 06:57:35;;;;;;;10.85;6.88;;;12.30;99.90;;;;;;5089210;28;20044;-64
2021/12/29 07:00:08;;;;;;;10.43;6.68;;;12.40;99.90;;;;;;5086580;28;20051;-64
2021/12/29 07:02:36;;;;;;;13.02;7.32;;;12.50;99.90;;;;;;5101766;28;20037;-64
2021/12/29 07:05:04;;;;;;;9.43;7.00;;;12.50;99.90;;;;;;5091219;28;20051;-65
2021/12/29 07:07:32;;;;;;;12.05;6.63;;;12.50;99.90;;;;;;5106663;28;20070;-66
2021/12/29 07:10:00;;;;;;;10.77;7.35;;;12.50;99.90;;;;;;5104125;28;20130;-64
2021/12/29 07:12:28;;;;;;;10.68;7.10;;;12.60;99.90;;;;;;5075803;28;20051;-64
2021/12/29 07:14:57;;;;;;;10.35;6.97;;;12.60;99.90;;;;;;5093367;28;20036;-64
2021/12/29 07:17:24;;;;;;;18.23;8.98;;;12.60;99.90;;;;;;5093189;28;20566;-64
2021/12/29 07:19:53;;;;;;;17.25;8.30;;;12.70;99.90;;;;;;5075857;28;20135;-64
2021/12/29 07:22:20;;;;;;;13.80;8.77;;;12.70;99.90;;;;;;5074836;28;20032;-64
2021/12/29 07:24:47;;;;;;;10.98;7.15;;;12.70;99.90;;;;;;5073465;28;20190;-64
2021/12/29 07:27:16;;;;;;;18.05;9.18;;;12.70;99.90;;;;;;5102129;28;20040;-63
2021/12/29 07:29:43;;;;;;;14.57;8.73;;;12.80;99.90;;;;;;5075502;28;20036;-67
2021/12/29 07:32:11;;;;;;;15.70;9.15;;;12.80;99.90;;;;;;5075606;28;20051;-65
2021/12/29 07:34:39;;;;;;;12.25;8.95;;;12.80;99.90;;;;;;5095619;28;20043;-63
2021/12/29 07:37:06;;;;;;;13.63;9.68;;;12.80;99.90;;;;;;5094291;28;20047;-64
2021/12/29 07:39:34;;;;;;;12.60;8.07;;;12.80;99.90;;;;;;5079057;28;20040;-64
2021/12/29 07:42:02;;;;;;;13.25;9.15;;;12.90;99.90;;;;;;5059140;28;20052;-64
2021/12/29 07:44:39;;;;;;;14.80;9.63;;;12.80;99.90;;;;;;5081375;28;20128;-64
2021/12/29 07:47:07;;;;;;;16.83;9.57;;;12.90;99.90;;;;;;5080123;28;20071;-64
2021/12/29 07:49:34;;;;;;;15.60;9.48;;;12.90;99.90;;;;;;5107422;28;20059;-64
2021/12/29 07:52:02;;;;;;;16.08;9.68;;;12.90;99.90;;;;;;5098496;28;20043;-64
2021/12/29 07:54:30;;;;;;;14.70;9.70;;;13.00;99.90;;;;;;5093648;28;20126;-64
2021/12/29 07:56:57;;;;;;;15.85;9.48;;;13.00;99.90;;;;;;5104285;28;20619;-65
2021/12/29 07:59:25;;;;;;;14.48;8.88;;;13.00;99.90;;;;;;5110542;28;20166;-64
2021/12/29 08:01:52;;;;;;;14.32;8.50;;;13.00;99.90;;;;;;5113830;28;20043;-63
2021/12/29 08:04:20;;;;;;;12.55;9.43;;;13.10;99.90;;;;;;5113445;28;20040;-64
2021/12/29 08:06:48;;;;;;;13.32;10.25;;;13.10;99.90;;;;;;5078803;28;20048;-64
2021/12/29 08:09:15;;;;;;;12.50;9.35;;;13.10;99.90;;;;;;5095737;28;20049;-64
2021/12/29 08:11:44;;;;;;;14.68;8.48;;;13.10;99.90;;;;;;5061596;28;20088;-64
2021/12/29 08:14:11;;;;;;;15.13;8.63;;;13.20;99.90;;;;;;5079307;28;20127;-64
2021/12/29 08:16:39;;;;;;;11.95;7.82;;;13.20;99.90;;;;;;5095860;28;20379;-64
2021/12/29 08:19:08;;;;;;;11.93;8.68;;;13.20;99.90;;;;;;5113721;28;20085;-64
2021/12/29 08:21:36;;;;;;;11.90;8.38;;;13.20;99.90;;;;;;5095990;28;20032;-64
2021/12/29 08:24:04;;;;;;;19.70;9.40;;;13.20;99.90;;;;;;5096142;28;20134;-64
2021/12/29 08:26:31;;;;;;;15.55;10.20;;;13.20;99.90;;;;;;5095925;28;20040;-64
2021/12/29 08:29:01;;;;;;;17.45;9.57;;;13.20;99.90;;;;;;5078946;28;20048;-64
2021/12/29 08:31:29;;;;;;;17.63;9.60;;;13.20;99.90;;;;;;5095654;28;20088;-66
2021/12/29 08:33:57;;;;;;;10.13;7.55;;;13.20;99.90;;;;;;5078554;28;20474;-64
2021/12/29 08:36:25;;;;;;;10.50;7.50;;;13.20;99.90;;;;;;5095926;28;20059;-64
2021/12/29 08:38:53;;;;;;;15.80;8.82;;;13.20;99.90;;;;;;5095589;28;20118;-65
2021/12/29 08:41:21;;;;;;;11.95;7.90;;;13.20;99.90;;;;;;5078615;28;20048;-64
2021/12/29 08:43:49;;;;;;;12.60;7.82;;;13.20;99.90;;;;;;5078783;28;20112;-64
2021/12/29 08:46:17;;;;;;;13.50;8.93;;;13.30;99.90;;;;;;5078929;28;20040;-64
2021/12/29 08:48:46;;;;;;;16.13;11.30;;;13.30;99.90;;;;;;5095731;28;20039;-64
2021/12/29 08:51:14;;;;;;;24.05;14.52;;;13.30;99.90;;;;;;5113699;28;20051;-64
2021/12/29 08:53:44;;;;;;;21.73;14.20;;;13.40;99.90;;;;;;5078729;28;20042;-64
2021/12/29 08:56:14;;;;;;;29.90;15.18;;;13.40;99.90;;;;;;5095763;28;20039;-65
2021/12/29 08:58:42;;;;;;;16.92;11.45;;;13.40;99.90;;;;;;5095365;28;20073;-64
2021/12/29 09:01:10;;;;;;;20.73;12.45;;;13.50;99.90;;;;;;5095839;28;20040;-64
2021/12/29 09:03:38;;;;;;;14.63;10.07;;;13.50;99.90;;;;;;5095664;28;20054;-64
2021/12/29 09:06:06;;;;;;;12.50;8.23;;;13.50;99.90;;;;;;5095446;28;20043;-64
2021/12/29 09:08:34;;;;;;;9.85;6.97;;;13.80;99.90;;;;;;5113107;28;20040;-65
2021/12/29 09:11:01;;;;;;;11.45;6.85;;;14.00;99.90;;;;;;5095485;28;20043;-64
2021/12/29 09:13:29;;;;;;;12.20;7.85;;;14.30;99.90;;;;;;5113021;28;20092;-64
2021/12/29 09:15:57;;;;;;;12.48;6.70;;;14.70;99.90;;;;;;5095335;28;20044;-65
2021/12/29 09:18:27;;;;;;;10.48;6.28;;;15.00;99.90;;;;;;5095562;28;20075;-64
2021/12/29 09:20:58;;;;;;;12.77;6.68;;;15.30;99.90;;;;;;5095912;28;20104;-64
2021/12/29 09:23:26;;;;;;;11.65;7.38;;;15.60;99.90;;;;;;5098208;28;20101;-66
2021/12/29 09:25:55;;;;;;;8.48;5.63;;;15.90;99.90;;;;;;5098780;28;20065;-64
2021/12/29 09:28:23;;;;;;;7.13;5.25;;;16.20;99.90;;;;;;5065090;28;20482;-64
2021/12/29 09:30:52;;;;;;;11.48;6.60;;;16.30;99.90;;;;;;5116984;28;20043;-64
2021/12/29 09:33:20;;;;;;;10.10;5.28;;;16.50;99.90;;;;;;5116765;28;20093;-65
2021/12/29 09:35:57;;;;;;;7.95;5.25;;;16.50;99.90;;;;;;5081875;28;20043;-66
2021/12/29 09:38:24;;;;;;;8.45;4.72;;;16.40;99.90;;;;;;5098725;28;20472;-66
2021/12/29 09:40:52;;;;;;;13.02;5.78;;;16.50;99.90;;;;;;5099004;28;20044;-65
2021/12/29 09:43:21;;;;;;;9.40;5.05;;;16.60;99.90;;;;;;5098492;28;20513;-65
2021/12/29 09:45:50;;;;;;;7.88;5.05;;;16.80;99.90;;;;;;5098629;28;20050;-65
2021/12/29 09:48:18;;;;;;;8.07;4.85;;;16.80;99.90;;;;;;5098476;28;20385;-66
2021/12/29 09:50:47;;;;;;;10.00;4.70;;;16.90;99.90;;;;;;5081511;28;20477;-65
2021/12/29 09:53:16;;;;;;;6.88;4.45;;;16.80;99.90;;;;;;5098148;28;20436;-65
2021/12/29 09:55:45;;;;;;;6.65;4.35;;;16.70;99.90;;;;;;5116523;28;20130;-65
2021/12/29 09:58:15;;;;;;;9.90;4.82;;;16.50;99.90;;;;;;5064726;28;20044;-66
2021/12/29 10:00:50;;;;;;;6.65;4.07;;;16.40;99.90;;;;;;5098427;28;20042;-65
2021/12/29 10:03:20;;;;;;;6.35;2.60;;;16.20;99.90;;;;;;5098067;28;20092;-65
2021/12/29 10:05:50;;;;;;;6.40;3.38;;;16.20;99.90;;;;;;5098176;28;20035;-63
2021/12/29 10:08:30;;;;;;;5.55;2.30;;;16.40;99.90;;;;;;5081550;28;20047;-63
2021/12/29 10:11:01;;;;;;;3.75;2.58;;;16.50;99.90;;;;;;5081283;28;20081;-63
2021/12/29 10:13:32;;;;;;;5.53;2.97;;;16.80;99.90;;;;;;5097975;28;20393;-63
2021/12/29 10:16:11;;;;;;;7.55;3.28;;;17.10;99.90;;;;;;5116037;28;20043;-63
2021/12/29 10:18:43;;;;;;;6.43;3.20;;;17.10;99.90;;;;;;5116148;28;20088;-63
2021/12/29 10:21:18;;;;;;;4.53;2.85;;;17.40;99.90;;;;;;5115989;28;20036;-63
2021/12/29 10:23:52;;;;;;;4.80;2.50;;;17.20;99.90;;;;;;5115992;28;20122;-63
2021/12/29 10:26:39;;;;;;;9.27;4.32;;;17.40;99.90;;;;;;5100290;28;20052;-63
2021/12/29 10:29:10;;;;;;;6.47;3.53;;;17.40;99.90;;;;;;5080836;28;20394;-63
2021/12/29 10:31:40;;;;;;;4.65;2.42;;;17.60;99.90;;;;;;5097611;28;20482;-63
2021/12/29 10:34:14;;;;;;;9.38;3.88;;;17.70;99.90;;;;;;5080374;28;20047;-61
2021/12/29 10:36:56;;;;;;;8.18;4.43;;;17.90;99.90;;;;;;5097373;28;20126;-64
2021/12/29 10:39:40;;;;;;;3.67;2.20;;;18.20;99.90;;;;;;5080625;28;20039;-63
2021/12/29 10:42:17;;;;;;;6.22;1.70;;;18.30;99.90;;;;;;5115601;28;20482;-63
2021/12/29 10:44:51;;;;;;;6.57;1.50;;;18.20;99.90;;;;;;5097436;28;20582;-63
2021/12/29 10:47:23;;;;;;;7.88;2.30;;;18.00;99.90;;;;;;5115089;28;20036;-63
2021/12/29 10:50:13;;;;;;;2.67;1.85;;;17.90;99.90;;;;;;5097272;28;20100;-63
2021/12/29 10:52:48;;;;;;;5.35;2.08;;;17.70;99.90;;;;;;5080626;28;20122;-63
2021/12/29 10:55:18;;;;;;;3.75;2.22;;;17.50;99.90;;;;;;5097188;28;20130;-63
2021/12/29 10:57:58;;;;;;;4.07;2.20;;;17.30;99.90;;;;;;5063704;28;20090;-65
2021/12/29 11:00:41;;;;;;;5.65;2.40;;;17.10;99.90;;;;;;5099105;28;20055;-63
2021/12/29 11:03:14;;;;;;;4.85;2.35;;;17.10;99.90;;;;;;5080269;28;20040;-63
2021/12/29 11:05:48;;;;;;;3.03;1.90;;;17.20;99.90;;;;;;5115198;28;20486;-64
2021/12/29 11:08:17;;;;;;;5.07;3.33;;;17.40;99.90;;;;;;5114982;28;20134;-64
2021/12/29 11:10:46;;;;;;;3.70;3.30;;;17.60;99.90;;;;;;5096921;28;20036;-63
2021/12/29 11:13:27;;;;;;;4.22;3.00;;;17.60;99.90;;;;;;5114734;28;20494;-64
2021/12/29 11:15:57;;;;;;;7.30;3.88;;;17.60;99.90;;;;;;5114933;28;20040;-63
2021/12/29 11:18:26;;;;;;;8.48;6.30;;;17.60;99.90;;;;;;5096730;28;20070;-64
2021/12/29 11:20:58;;;;;;;4.75;3.13;;;17.70;99.90;;;;;;5097001;28;20101;-64
2021/12/29 11:23:25;;;;;;;8.15;3.65;;;17.80;99.90;;;;;;5079733;28;20053;-64
2021/12/29 11:25:53;;;;;;;9.38;2.72;;;17.80;99.90;;;;;;5096801;28;20088;-64
2021/12/29 11:28:30;;;;;;;5.55;2.78;;;17.90;99.90;;;;;;5079690;28;20100;-64
2021/12/29 11:31:03;;;;;;;5.18;3.30;;;17.80;99.90;;;;;;5076485;28;20055;-64
2021/12/29 11:33:32;;;;;;;8.77;3.97;;;17.70;99.90;;;;;;5059945;28;20043;-64
2021/12/29 11:36:01;;;;;;;8.55;3.88;;;17.60;99.90;;;;;;5079693;28;20493;-64
2021/12/29 11:38:29;;;;;;;6.10;4.03;;;17.40;99.90;;;;;;5096561;28;20039;-64
2021/12/29 11:40:59;;;;;;;5.53;3.20;;;17.30;99.90;;;;;;5096540;28;20067;-64
2021/12/29 11:43:27;;;;;;;8.48;3.53;;;17.10;99.90;;;;;;5114351;28;20093;-64
2021/12/29 11:45:57;;;;;;;5.78;3.50;;;17.00;99.90;;;;;;5095477;28;20062;-64
2021/12/29 11:48:26;;;;;;;6.43;3.75;;;16.80;99.90;;;;;;5079299;28;20050;-64
2021/12/29 11:51:00;;;;;;;14.00;5.30;;;16.80;99.90;;;;;;5079620;28;20377;-64
2021/12/29 11:53:54;;;;;;;5.35;4.10;;;16.90;99.90;;;;;;5113382;28;20040;-65
2021/12/29 11:56:22;;;;;;;6.32;3.70;;;16.90;99.90;;;;;;5072791;28;20371;-67
2021/12/29 11:58:51;;;;;;;12.65;3.47;;;17.10;99.90;;;;;;5094736;28;20048;-67
2021/12/29 12:01:20;;;;;;;6.88;4.15;;;17.30;99.90;;;;;;5096294;28;20084;-66
2021/12/29 12:03:52;;;;;;;7.78;3.40;;;17.40;99.90;;;;;;5095805;28;20480;-67
2021/12/29 12:06:32;;;;;;;7.88;4.50;;;17.60;99.90;;;;;;5087910;28;20032;-67
2021/12/29 12:09:25;;;;;;;6.20;4.40;;;17.80;99.90;;;;;;5084844;28;20075;-66
2021/12/29 12:12:03;;;;;;;7.03;3.92;;;18.00;99.90;;;;;;5086460;28;20041;-66
2021/12/29 12:14:34;;;;;;;7.68;3.88;;;18.10;99.90;;;;;;5074680;28;20047;-67
2021/12/29 12:17:11;;;;;;;7.07;3.67;;;18.20;99.90;;;;;;5075697;28;20075;-64
2021/12/29 12:19:40;;;;;;;5.57;3.58;;;18.20;99.90;;;;;;5091904;28;20048;-65
2021/12/29 12:22:10;;;;;;;7.35;3.75;;;18.20;99.90;;;;;;5089351;28;20039;-66
2021/12/29 12:24:41;;;;;;;6.63;4.43;;;17.90;99.90;;;;;;5058744;28;20520;-65
2021/12/29 12:27:15;;;;;;;4.82;4.07;;;17.80;99.90;;;;;;5107311;28;20390;-65
2021/12/29 12:29:45;;;;;;;6.80;3.60;;;17.80;99.90;;;;;;5059166;28;20105;-66
2021/12/29 12:32:19;;;;;;;6.35;2.97;;;17.80;99.90;;;;;;5075557;28;20143;-68
2021/12/29 12:35:01;;;;;;;4.70;3.28;;;17.80;99.90;;;;;;5075748;28;20036;-65
2021/12/29 12:37:35;;;;;;;7.57;4.22;;;17.80;99.90;;;;;;5110119;28;20092;-66
2021/12/29 12:40:08;;;;;;;5.18;2.70;;;17.80;99.90;;;;;;5075534;28;20489;-66
2021/12/29 12:42:37;;;;;;;5.85;2.88;;;17.80;99.90;;;;;;5066237;28;20041;-66
2021/12/29 12:45:21;;;;;;;4.50;2.33;;;17.80;99.90;;;;;;5113704;28;20051;-67
2021/12/29 12:47:49;;;;;;;8.68;4.00;;;17.80;99.90;;;;;;5095848;28;20071;-68
2021/12/29 12:50:28;;;;;;;6.22;3.70;;;17.80;99.90;;;;;;5095944;28;20043;-67
2021/12/29 12:52:56;;;;;;;4.22;3.10;;;17.80;99.90;;;;;;5085018;28;20047;-67
2021/12/29 12:55:25;;;;;;;3.50;2.38;;;17.80;99.90;;;;;;5075292;28;20047;-67
2021/12/29 12:57:52;;;;;;;4.60;2.33;;;17.80;99.90;;;;;;5077518;28;20106;-67
2021/12/29 13:00:28;;;;;;;3.35;2.00;;;17.70;99.90;;;;;;5062584;28;20048;-67
2021/12/29 13:03:01;;;;;;;;;;;17.60;99.70;;;;;;5068639;28;20047;-67